Time;durP1;ratioP1;P1;durP2;ratioP2;P2;SDS_P1;SDS_P2;PMS_P1;PMS_P2;Temp;Humidity;BMP_temperature;BMP_pressure;BME280_temperature;BME280_humidity;BME280_pressure;Samples;Min_cycle;Max_cycle;Signal;HPM_P1;HPM_P2
2021/01/02 00:00:57;;;;;;;3.17;1.95;;;4.20;99.90;;;;;;5014743;28;20283;-78
2021/01/02 00:03:50;;;;;;;1.20;1.20;;;4.10;99.90;;;;;;5013803;28;20251;-78
2021/01/02 00:06:27;;;;;;;1.00;1.00;;;4.00;99.90;;;;;;5014507;28;20259;-77
2021/01/02 00:09:00;;;;;;;1.25;1.20;;;4.00;99.90;;;;;;5014613;28;20192;-78
2021/01/02 00:11:35;;;;;;;2.65;1.40;;;3.90;99.90;;;;;;5014600;28;20171;-78
2021/01/02 00:14:16;;;;;;;10.00;1.13;;;4.10;99.90;;;;;;5014439;28;20295;-77
2021/01/02 00:17:30;;;;;;;2.30;2.10;;;4.20;99.90;;;;;;5014493;28;20226;-78
2021/01/02 00:20:31;;;;;;;0.90;0.90;;;4.40;99.90;;;;;;4998523;28;20224;-76
2021/01/02 00:23:01;;;;;;;4.85;1.05;;;4.00;99.90;;;;;;4953958;29;20186;-77
2021/01/02 00:25:31;;;;;;;2.40;2.20;;;3.80;99.90;;;;;;5003660;28;20216;-78
2021/01/02 00:28:23;;;;;;;1.15;1.15;;;4.00;99.90;;;;;;5014249;28;20215;-77
2021/01/02 00:31:01;;;;;;;0.80;0.80;;;3.90;99.90;;;;;;5014210;28;20169;-77
2021/01/02 00:33:57;;;;;;;2.38;2.28;;;4.30;99.90;;;;;;5014239;28;20199;-76
2021/01/02 00:36:38;;;;;;;1.17;1.17;;;4.20;99.90;;;;;;5014404;28;20532;-76
2021/01/02 00:39:10;;;;;;;1.55;1.30;;;3.90;99.90;;;;;;4996219;28;20220;-75
2021/01/02 00:41:38;;;;;;;1.10;1.08;;;3.70;99.90;;;;;;5014157;28;20173;-76
2021/01/02 00:44:12;;;;;;;5.68;2.88;;;3.70;99.90;;;;;;5013968;28;20164;-77
2021/01/02 00:46:39;;;;;;;4.78;2.58;;;3.80;99.90;;;;;;5014063;28;20196;-76
2021/01/02 00:49:08;;;;;;;0.45;0.45;;;3.80;99.90;;;;;;4996374;28;20153;-75
2021/01/02 00:51:40;;;;;;;1.05;1.02;;;3.80;99.90;;;;;;5014003;28;20191;-76
2021/01/02 00:54:27;;;;;;;1.77;1.08;;;3.80;99.90;;;;;;5013792;28;20160;-75
2021/01/02 00:57:02;;;;;;;0.93;0.93;;;3.60;99.90;;;;;;5013844;28;20203;-77
2021/01/02 01:00:07;;;;;;;4.53;1.30;;;3.90;99.90;;;;;;5013648;28;20261;-76
2021/01/02 01:02:51;;;;;;;1.23;0.93;;;3.90;99.90;;;;;;4983503;28;20184;-75
2021/01/02 01:05:23;;;;;;;2.15;2.03;;;3.90;99.90;;;;;;5013598;28;20766;-76
2021/01/02 01:07:56;;;;;;;6.13;2.42;;;3.80;99.90;;;;;;4996024;28;20164;-76
2021/01/02 01:10:23;;;;;;;1.20;1.20;;;3.80;99.90;;;;;;5013695;28;20172;-76
2021/01/02 01:12:58;;;;;;;0.57;0.57;;;3.70;99.90;;;;;;5013842;28;20179;-75
2021/01/02 01:15:23;;;;;;;2.33;2.13;;;3.70;99.90;;;;;;5013309;28;20192;-75
2021/01/02 01:17:57;;;;;;;5.68;3.60;;;3.60;99.90;;;;;;5013559;28;20156;-75
2021/01/02 01:20:25;;;;;;;1.92;1.83;;;3.50;99.90;;;;;;5013398;28;20205;-75
2021/01/02 01:23:24;;;;;;;4.28;2.53;;;3.50;99.90;;;;;;5013452;28;20168;-75
2021/01/02 01:25:58;;;;;;;9.27;2.55;;;3.60;99.90;;;;;;5013228;28;20558;-77
2021/01/02 01:28:25;;;;;;;7.85;2.50;;;3.60;99.90;;;;;;5013356;28;20164;-77
2021/01/02 01:30:54;;;;;;;1.25;1.25;;;3.60;99.90;;;;;;5013295;28;20222;-77
2021/01/02 01:33:29;;;;;;;1.75;1.65;;;3.40;99.90;;;;;;5013335;28;20175;-76
2021/01/02 01:36:02;;;;;;;11.30;2.17;;;3.50;99.90;;;;;;5013241;28;20282;-75
2021/01/02 01:38:30;;;;;;;0.85;0.85;;;3.40;99.90;;;;;;4995696;28;20562;-77
2021/01/02 01:41:09;;;;;;;1.52;1.42;;;3.50;99.90;;;;;;5012867;28;20258;-76
2021/01/02 01:44:08;;;;;;;1.27;1.20;;;3.80;99.90;;;;;;5013252;28;20207;-78
2021/01/02 01:46:35;;;;;;;2.45;2.25;;;3.70;99.90;;;;;;5013254;28;20173;-76
2021/01/02 01:49:10;;;;;;;4.75;3.88;;;3.80;99.90;;;;;;5013179;28;20164;-76
2021/01/02 01:51:55;;;;;;;4.72;1.83;;;3.80;99.90;;;;;;5013527;28;20206;-76
2021/01/02 01:54:24;;;;;;;1.65;1.25;;;3.80;99.90;;;;;;5013099;28;20188;-76
2021/01/02 01:56:50;;;;;;;1.70;1.60;;;4.00;99.90;;;;;;5013127;28;20171;-77
2021/01/02 01:59:21;;;;;;;0.95;0.95;;;4.00;99.90;;;;;;5013229;28;20644;-76
2021/01/02 02:01:55;;;;;;;5.25;2.45;;;4.00;99.90;;;;;;5013285;28;20184;-78
2021/01/02 02:04:48;;;;;;;0.85;0.85;;;4.00;99.90;;;;;;5012854;28;20184;-77
2021/01/02 02:07:16;;;;;;;2.15;1.00;;;4.00;99.90;;;;;;5013017;28;20168;-78
2021/01/02 02:09:43;;;;;;;1.77;0.75;;;3.90;99.90;;;;;;5013064;28;20177;-78
2021/01/02 02:12:21;;;;;;;1.50;1.40;;;3.80;99.90;;;;;;5013004;28;20573;-77
2021/01/02 02:14:59;;;;;;;4.35;1.45;;;3.80;99.90;;;;;;5012937;28;20965;-77
2021/01/02 02:17:47;;;;;;;3.90;1.42;;;3.90;99.90;;;;;;5012811;28;20183;-75
2021/01/02 02:20:17;;;;;;;2.40;1.85;;;3.90;99.90;;;;;;5012671;28;20212;-76
2021/01/02 02:22:43;;;;;;;2.35;1.60;;;3.80;99.90;;;;;;5013155;28;20164;-77
2021/01/02 02:25:14;;;;;;;4.45;2.47;;;4.00;99.90;;;;;;5012818;28;20193;-76
2021/01/02 02:27:42;;;;;;;1.00;1.00;;;4.10;99.90;;;;;;5015994;28;20168;-76
2021/01/02 02:30:10;;;;;;;0.60;0.60;;;4.20;99.90;;;;;;5016554;28;20567;-76
2021/01/02 02:32:39;;;;;;;0.80;0.68;;;4.20;99.90;;;;;;5016461;28;20251;-78
2021/01/02 02:35:11;;;;;;;3.00;2.83;;;4.20;99.90;;;;;;5016481;28;20180;-78
2021/01/02 02:37:39;;;;;;;1.48;1.00;;;4.30;99.90;;;;;;5016414;28;20297;-76
2021/01/02 02:40:08;;;;;;;1.27;1.27;;;4.20;99.90;;;;;;5016079;28;20267;-75
2021/01/02 02:42:36;;;;;;;3.63;0.75;;;4.30;99.90;;;;;;4998826;28;20177;-77
2021/01/02 02:45:03;;;;;;;2.05;1.42;;;4.60;99.90;;;;;;5016100;28;20200;-77
2021/01/02 02:47:31;;;;;;;1.70;1.60;;;4.50;99.90;;;;;;5016170;28;20161;-77
2021/01/02 02:49:58;;;;;;;1.85;1.45;;;4.40;99.90;;;;;;5016227;28;20401;-77
2021/01/02 02:52:41;;;;;;;34.22;2.75;;;4.10;99.90;;;;;;5016114;28;20203;-76
2021/01/02 02:55:08;;;;;;;3.72;1.42;;;4.10;99.90;;;;;;5016040;28;20200;-76
2021/01/02 02:57:41;;;;;;;1.27;1.13;;;4.10;99.90;;;;;;5016093;28;20584;-76
2021/01/02 03:00:07;;;;;;;1.83;1.73;;;4.00;99.90;;;;;;4998256;28;20371;-75
2021/01/02 03:02:34;;;;;;;0.85;0.85;;;4.10;99.90;;;;;;5015970;28;20161;-75
2021/01/02 03:05:03;;;;;;;0.60;0.60;;;4.00;99.90;;;;;;5015744;28;20177;-78
2021/01/02 03:07:28;;;;;;;1.05;0.95;;;3.90;99.90;;;;;;5015845;28;20531;-77
2021/01/02 03:09:55;;;;;;;1.17;0.88;;;4.10;99.90;;;;;;5015837;28;20208;-76
2021/01/02 03:12:20;;;;;;;14.30;3.15;;;4.10;99.90;;;;;;5015621;28;20153;-77
2021/01/02 03:14:46;;;;;;;1.75;1.60;;;4.20;99.90;;;;;;4998150;28;20188;-78
2021/01/02 03:17:12;;;;;;;3.67;3.10;;;4.20;99.90;;;;;;5015628;28;20176;-76
2021/01/02 03:19:37;;;;;;;1.92;1.83;;;4.20;99.90;;;;;;5015519;28;20212;-77
2021/01/02 03:22:03;;;;;;;0.80;0.80;;;4.10;99.90;;;;;;5015608;28;20165;-76
2021/01/02 03:24:28;;;;;;;2.08;1.95;;;4.00;99.90;;;;;;5015388;28;20255;-78
2021/01/02 03:26:54;;;;;;;2.70;1.45;;;4.10;99.90;;;;;;4997910;28;20180;-78
2021/01/02 03:29:19;;;;;;;4.47;2.15;;;4.20;99.90;;;;;;5015510;28;20161;-76
2021/01/02 03:31:45;;;;;;;2.50;2.30;;;4.20;99.90;;;;;;5015371;28;20156;-77
2021/01/02 03:34:11;;;;;;;3.33;2.80;;;4.30;99.90;;;;;;5015169;28;20521;-76
2021/01/02 03:36:36;;;;;;;3.60;2.20;;;4.40;99.90;;;;;;5015223;28;20168;-76
2021/01/02 03:39:02;;;;;;;1.90;1.80;;;4.40;99.90;;;;;;5014935;28;20176;-77
2021/01/02 03:41:28;;;;;;;0.85;0.85;;;4.30;99.90;;;;;;5015174;28;20234;-77
2021/01/02 03:43:55;;;;;;;3.90;1.70;;;4.40;99.90;;;;;;5015028;28;20161;-76
2021/01/02 03:46:26;;;;;;;3.05;1.48;;;4.60;99.90;;;;;;5015160;28;20165;-76
2021/01/02 03:48:51;;;;;;;0.77;0.77;;;4.50;99.90;;;;;;5015032;28;20157;-76
2021/01/02 03:51:25;;;;;;;1.35;1.25;;;4.60;99.90;;;;;;5015014;28;20502;-76
2021/01/02 03:53:51;;;;;;;8.48;2.72;;;4.60;99.90;;;;;;5014891;28;20164;-77
2021/01/02 03:56:17;;;;;;;2.30;1.60;;;4.50;99.90;;;;;;5014957;28;20640;-78
2021/01/02 03:58:43;;;;;;;1.25;1.25;;;4.20;99.90;;;;;;5014919;28;20157;-77
2021/01/02 04:01:10;;;;;;;2.05;1.55;;;4.00;99.90;;;;;;5014697;28;20239;-76
2021/01/02 04:03:36;;;;;;;1.48;1.08;;;4.00;99.90;;;;;;5015207;28;20161;-75
2021/01/02 04:06:02;;;;;;;3.88;2.50;;;4.20;99.90;;;;;;4997061;28;20200;-75
2021/01/02 04:08:27;;;;;;;0.30;0.30;;;4.20;99.90;;;;;;5014707;28;20164;-77
2021/01/02 04:10:53;;;;;;;0.93;0.93;;;4.00;99.90;;;;;;5014623;28;20180;-76
2021/01/02 04:13:18;;;;;;;0.93;0.82;;;3.80;99.90;;;;;;5014605;28;20160;-76
2021/01/02 04:15:44;;;;;;;1.00;1.00;;;3.90;99.90;;;;;;5014412;28;20185;-77
2021/01/02 04:18:09;;;;;;;0.43;0.43;;;3.90;99.90;;;;;;5014408;28;20161;-76
2021/01/02 04:20:35;;;;;;;1.02;1.02;;;4.20;99.90;;;;;;5014425;28;20734;-77
2021/01/02 04:23:00;;;;;;;0.82;0.70;;;4.20;99.90;;;;;;5014434;28;20169;-77
2021/01/02 04:25:26;;;;;;;1.30;1.30;;;4.20;99.90;;;;;;5014384;28;20200;-77
2021/01/02 04:27:52;;;;;;;0.95;0.95;;;4.10;99.90;;;;;;5014275;28;20173;-77
2021/01/02 04:30:18;;;;;;;1.63;1.08;;;4.10;99.90;;;;;;5014407;28;20180;-77
2021/01/02 04:32:45;;;;;;;1.45;1.35;;;4.10;99.90;;;;;;5014188;28;20168;-78
2021/01/02 04:35:11;;;;;;;2.40;2.05;;;4.20;99.90;;;;;;5014173;28;20184;-78
2021/01/02 04:37:38;;;;;;;1.80;1.00;;;4.30;99.90;;;;;;5014115;28;20211;-77
2021/01/02 04:40:05;;;;;;;5.45;2.63;;;4.50;99.90;;;;;;5014026;28;20231;-78
2021/01/02 04:42:30;;;;;;;0.63;0.63;;;4.40;99.90;;;;;;5014160;28;20163;-77
2021/01/02 04:44:57;;;;;;;0.70;0.70;;;4.30;99.90;;;;;;5014222;28;20555;-78
2021/01/02 04:47:27;;;;;;;1.83;0.75;;;4.20;99.90;;;;;;5014011;28;20632;-77
2021/01/02 04:49:53;;;;;;;1.90;1.80;;;4.40;99.90;;;;;;4995897;28;20176;-77
2021/01/02 04:52:19;;;;;;;1.75;1.38;;;4.50;99.90;;;;;;5013924;28;20175;-77
2021/01/02 04:54:49;;;;;;;2.10;1.88;;;4.70;99.90;;;;;;5013959;28;20203;-78
2021/01/02 04:57:18;;;;;;;0.80;0.52;;;4.70;99.90;;;;;;5013652;28;20169;-77
2021/01/02 04:59:51;;;;;;;3.63;2.25;;;4.80;99.90;;;;;;5013747;28;20204;-78
2021/01/02 05:02:21;;;;;;;1.20;1.20;;;4.70;99.90;;;;;;5014064;28;20567;-78
2021/01/02 05:04:50;;;;;;;1.17;0.90;;;4.70;99.90;;;;;;5013624;28;20188;-78
2021/01/02 05:07:27;;;;;;;1.42;1.33;;;4.60;99.90;;;;;;5013577;28;20255;-77
2021/01/02 05:09:53;;;;;;;2.40;1.80;;;4.60;99.90;;;;;;5013633;28;20169;-78
2021/01/02 05:12:32;;;;;;;2.25;1.77;;;4.50;99.90;;;;;;5013558;28;20164;-78
2021/01/02 05:15:10;;;;;;;15.18;1.92;;;4.50;99.90;;;;;;4995951;28;20203;-78
2021/01/02 05:17:38;;;;;;;1.52;1.30;;;4.50;99.90;;;;;;5013520;28;20164;-78
2021/01/02 05:20:12;;;;;;;0.50;0.50;;;4.30;99.90;;;;;;5013424;28;20207;-78
2021/01/02 05:22:39;;;;;;;9.07;1.15;;;4.40;99.90;;;;;;5013527;28;20242;-78
2021/01/02 05:25:12;;;;;;;2.33;1.30;;;4.50;99.90;;;;;;4995755;28;20212;-78
2021/01/02 05:27:38;;;;;;;2.40;1.45;;;4.50;99.90;;;;;;4995572;28;20172;-77
2021/01/02 05:30:27;;;;;;;0.60;0.60;;;4.40;99.90;;;;;;5013450;28;20305;-78
2021/01/02 05:33:10;;;;;;;2.08;1.98;;;4.50;99.90;;;;;;5013558;28;20168;-77
2021/01/02 05:35:44;;;;;;;2.38;2.28;;;4.50;99.90;;;;;;5013089;28;20191;-78
2021/01/02 05:38:11;;;;;;;1.70;1.63;;;4.50;99.90;;;;;;5013579;28;20247;-77
2021/01/02 05:40:39;;;;;;;0.45;0.45;;;4.60;99.90;;;;;;5012999;28;20779;-77
2021/01/02 05:43:05;;;;;;;1.98;1.88;;;4.70;99.90;;;;;;5013319;28;20596;-78
2021/01/02 05:45:31;;;;;;;0.82;0.82;;;4.60;99.90;;;;;;5013410;28;20184;-77
2021/01/02 05:48:10;;;;;;;2.00;1.45;;;4.40;99.90;;;;;;5013011;28;20180;-76
2021/01/02 05:51:00;;;;;;;2.45;1.33;;;4.30;99.90;;;;;;5013203;28;20164;-77
2021/01/02 05:53:27;;;;;;;4.20;2.72;;;4.20;99.90;;;;;;5012653;28;20184;-78
2021/01/02 05:56:07;;;;;;;1.95;1.85;;;4.30;99.90;;;;;;5013052;28;20544;-77
2021/01/02 05:58:39;;;;;;;22.20;2.72;;;4.50;99.90;;;;;;5013439;28;20535;-78
2021/01/02 06:01:09;;;;;;;3.53;1.92;;;4.60;99.90;;;;;;5013809;28;20211;-78
2021/01/02 06:03:36;;;;;;;0.90;0.90;;;4.40;99.90;;;;;;4999465;28;20180;-78
2021/01/02 06:06:07;;;;;;;2.70;2.38;;;4.30;99.90;;;;;;5016784;28;20238;-78
2021/01/02 06:08:57;;;;;;;5.75;2.60;;;4.50;99.90;;;;;;5016917;28;20236;-78
2021/01/02 06:11:23;;;;;;;2.30;2.05;;;4.70;99.90;;;;;;5016297;28;20202;-77
2021/01/02 06:13:52;;;;;;;0.82;0.82;;;4.80;99.90;;;;;;5016826;28;20171;-77
2021/01/02 06:16:18;;;;;;;2.33;2.17;;;4.80;99.90;;;;;;5016757;28;20666;-77
2021/01/02 06:18:46;;;;;;;1.42;1.33;;;5.00;99.90;;;;;;4999248;28;20241;-77
2021/01/02 06:21:17;;;;;;;1.27;1.27;;;4.60;99.90;;;;;;5016359;28;20212;-76
2021/01/02 06:23:44;;;;;;;1.77;1.33;;;4.40;99.90;;;;;;4999033;28;20160;-76
2021/01/02 06:26:11;;;;;;;1.67;1.58;;;4.40;99.90;;;;;;5016398;28;20247;-77
2021/01/02 06:28:39;;;;;;;2.97;1.35;;;4.50;99.90;;;;;;4998912;28;20175;-78
2021/01/02 06:31:15;;;;;;;1.58;1.48;;;4.50;99.90;;;;;;5016546;28;20169;-75
2021/01/02 06:33:46;;;;;;;4.13;1.65;;;4.60;99.90;;;;;;5016242;28;20214;-76
2021/01/02 06:36:54;;;;;;;0.82;0.82;;;4.60;99.90;;;;;;5016444;28;20188;-77
2021/01/02 06:39:20;;;;;;;2.38;2.25;;;4.70;99.90;;;;;;4965095;28;20790;-77
2021/01/02 06:41:47;;;;;;;3.42;2.03;;;4.60;99.90;;;;;;4994607;28;20173;-76
2021/01/02 06:44:41;;;;;;;1.17;1.17;;;4.60;99.90;;;;;;5015394;28;20693;-76
2021/01/02 06:47:19;;;;;;;1.10;1.10;;;4.60;99.90;;;;;;5036081;28;20172;-75
2021/01/02 06:49:46;;;;;;;2.00;1.90;;;4.50;99.90;;;;;;5035985;28;20160;-77
2021/01/02 06:52:33;;;;;;;1.67;0.80;;;4.60;99.90;;;;;;5035959;28;20160;-76
2021/01/02 06:55:18;;;;;;;0.93;0.93;;;4.70;99.90;;;;;;5034386;28;20191;-76
2021/01/02 06:57:44;;;;;;;1.30;1.15;;;4.60;99.90;;;;;;5035891;28;20175;-76
2021/01/02 07:00:28;;;;;;;0.57;0.57;;;4.80;99.90;;;;;;5035614;28;20196;-77
2021/01/02 07:02:54;;;;;;;0.93;0.93;;;4.60;99.90;;;;;;5035667;28;20635;-78
2021/01/02 07:05:42;;;;;;;1.25;1.25;;;4.80;99.90;;;;;;5035487;28;20184;-75
2021/01/02 07:08:41;;;;;;;26.42;2.40;;;4.60;99.90;;;;;;5034263;28;20175;-76
2021/01/02 07:11:36;;;;;;;1.63;1.27;;;4.70;99.90;;;;;;5035994;28;20172;-78
2021/01/02 07:14:07;;;;;;;1.52;1.52;;;4.60;99.90;;;;;;5034227;28;20263;-78
2021/01/02 07:16:37;;;;;;;0.70;0.70;;;4.80;99.90;;;;;;5035390;28;20530;-77
2021/01/02 07:19:06;;;;;;;1.20;1.20;;;4.90;99.90;;;;;;5035292;28;20160;-78
2021/01/02 07:21:39;;;;;;;1.30;1.20;;;4.80;99.90;;;;;;5035219;28;20166;-79
2021/01/02 07:24:28;;;;;;;0.30;0.30;;;4.70;99.90;;;;;;5035161;28;20167;-77
2021/01/02 07:27:01;;;;;;;1.52;1.50;;;4.70;99.90;;;;;;5033864;28;20567;-78
2021/01/02 07:29:28;;;;;;;1.00;1.00;;;4.90;99.90;;;;;;5035122;28;20527;-78
2021/01/02 07:32:12;;;;;;;2.60;2.15;;;5.00;99.90;;;;;;5034150;28;20231;-78
2021/01/02 07:34:40;;;;;;;2.58;2.08;;;4.80;99.90;;;;;;5035047;28;20199;-79
2021/01/02 07:37:14;;;;;;;2.08;1.98;;;4.80;99.90;;;;;;5035162;28;20168;-78
2021/01/02 07:39:51;;;;;;;2.88;2.65;;;4.80;99.90;;;;;;5026927;28;20226;-78
2021/01/02 07:42:19;;;;;;;6.82;2.20;;;4.80;99.90;;;;;;5015186;28;20169;-79
2021/01/02 07:44:54;;;;;;;0.60;0.60;;;4.80;99.90;;;;;;5015048;28;20226;-78
2021/01/02 07:47:20;;;;;;;1.98;1.30;;;4.70;99.90;;;;;;5015155;28;20163;-78
2021/01/02 07:49:45;;;;;;;1.10;1.10;;;4.70;99.90;;;;;;4997461;28;20177;-78
2021/01/02 07:52:11;;;;;;;5.32;2.50;;;4.70;99.90;;;;;;5015011;28;20612;-76
2021/01/02 07:54:38;;;;;;;3.17;2.90;;;4.80;99.90;;;;;;5014849;28;20703;-77
2021/01/02 07:57:06;;;;;;;1.83;1.73;;;4.70;99.90;;;;;;5014893;28;20207;-77
2021/01/02 07:59:40;;;;;;;2.05;1.92;;;4.90;99.90;;;;;;5014438;28;20201;-78
2021/01/02 08:02:10;;;;;;;4.95;3.00;;;5.00;99.90;;;;;;5014710;28;20619;-77
2021/01/02 08:04:36;;;;;;;1.02;1.02;;;5.10;99.90;;;;;;5014743;28;20206;-76
2021/01/02 08:07:06;;;;;;;5.28;1.70;;;5.00;99.90;;;;;;5014513;28;20590;-76
2021/01/02 08:09:34;;;;;;;1.08;1.08;;;4.90;99.90;;;;;;5014480;28;20575;-77
2021/01/02 08:12:06;;;;;;;1.27;1.27;;;5.00;99.90;;;;;;5014519;28;20632;-77
2021/01/02 08:14:34;;;;;;;1.45;1.40;;;4.90;99.90;;;;;;4996894;28;20645;-77
2021/01/02 08:17:06;;;;;;;2.85;1.52;;;5.00;99.90;;;;;;5014389;28;20203;-76
2021/01/02 08:19:35;;;;;;;1.27;1.23;;;5.10;99.90;;;;;;5014415;28;20228;-76
2021/01/02 08:22:02;;;;;;;0.98;0.98;;;5.20;99.90;;;;;;5014412;28;20188;-77
2021/01/02 08:24:28;;;;;;;3.85;2.78;;;5.20;99.90;;;;;;5013404;28;20192;-77
2021/01/02 08:26:54;;;;;;;6.70;2.42;;;5.20;99.90;;;;;;5014233;28;20175;-77
2021/01/02 08:29:20;;;;;;;3.08;1.95;;;5.30;99.90;;;;;;5014170;28;20624;-77
2021/01/02 08:31:50;;;;;;;1.42;1.33;;;5.30;99.90;;;;;;5014240;28;20160;-77
2021/01/02 08:34:22;;;;;;;1.60;1.50;;;5.30;99.90;;;;;;4996566;28;20735;-75
2021/01/02 08:36:47;;;;;;;0.40;0.40;;;5.30;99.90;;;;;;4996361;28;20551;-76
2021/01/02 08:39:20;;;;;;;0.77;0.77;;;5.20;99.90;;;;;;5013605;28;20208;-76
2021/01/02 08:41:56;;;;;;;5.05;0.85;;;5.20;99.90;;;;;;5014039;28;20303;-76
2021/01/02 08:44:23;;;;;;;2.35;1.73;;;5.30;99.90;;;;;;5013777;28;20195;-76
2021/01/02 08:46:49;;;;;;;1.48;1.38;;;5.50;99.90;;;;;;4996171;28;20267;-75
2021/01/02 08:49:50;;;;;;;1.05;1.05;;;5.70;99.90;;;;;;5013958;28;20256;-78
2021/01/02 08:52:26;;;;;;;2.10;1.88;;;5.60;99.90;;;;;;4953427;29;20681;-76
2021/01/02 08:55:09;;;;;;;0.98;0.98;;;5.50;99.90;;;;;;5005649;28;20566;-76
2021/01/02 08:57:43;;;;;;;1.85;1.75;;;5.50;99.90;;;;;;5013784;28;20633;-76
2021/01/02 09:00:14;;;;;;;4.22;3.63;;;5.60;99.90;;;;;;5013655;28;20204;-76
2021/01/02 09:02:44;;;;;;;1.50;1.40;;;5.50;99.90;;;;;;5013652;28;20211;-77
2021/01/02 09:05:17;;;;;;;1.65;1.38;;;5.40;99.90;;;;;;5013309;28;20196;-75
2021/01/02 09:08:09;;;;;;;2.38;1.17;;;5.60;99.90;;;;;;5013526;28;20160;-76
2021/01/02 09:10:42;;;;;;;0.45;0.45;;;5.30;99.90;;;;;;4995600;28;20269;-76
2021/01/02 09:13:19;;;;;;;0.90;0.90;;;5.50;99.90;;;;;;5013717;28;20168;-78
2021/01/02 09:15:49;;;;;;;2.05;1.13;;;5.70;99.90;;;;;;5013314;28;20188;-76
2021/01/02 09:18:36;;;;;;;1.15;1.15;;;5.70;99.90;;;;;;5013296;28;20199;-76
2021/01/02 09:21:10;;;;;;;1.00;0.95;;;6.00;99.90;;;;;;5013254;28;20679;-76
2021/01/02 09:23:40;;;;;;;1.83;1.73;;;6.10;99.90;;;;;;5013306;28;20575;-75
2021/01/02 09:26:24;;;;;;;1.00;1.00;;;6.00;99.90;;;;;;4995670;28;20216;-76
2021/01/02 09:28:51;;;;;;;7.32;3.50;;;6.10;99.90;;;;;;5013310;28;20191;-76
2021/01/02 09:31:18;;;;;;;3.28;3.05;;;6.20;99.90;;;;;;5013170;28;20248;-76
2021/01/02 09:33:44;;;;;;;1.00;0.52;;;5.90;99.90;;;;;;5013111;28;20244;-75
2021/01/02 09:36:12;;;;;;;1.67;1.58;;;5.80;99.90;;;;;;5012974;28;20190;-76
2021/01/02 09:38:38;;;;;;;0.93;0.93;;;5.90;99.90;;;;;;5013009;28;20156;-77
2021/01/02 09:41:04;;;;;;;0.80;0.80;;;5.80;99.90;;;;;;5012931;28;20220;-75
2021/01/02 09:43:29;;;;;;;1.45;1.38;;;5.70;99.90;;;;;;5013116;28;20269;-76
2021/01/02 09:45:55;;;;;;;1.40;1.27;;;5.70;99.90;;;;;;5013001;28;20267;-77
2021/01/02 09:48:21;;;;;;;1.33;1.23;;;5.80;99.90;;;;;;5012450;28;20164;-76
2021/01/02 09:50:46;;;;;;;2.08;1.98;;;6.10;99.90;;;;;;4995285;28;20176;-79
2021/01/02 09:53:13;;;;;;;3.47;1.42;;;6.30;99.90;;;;;;4995386;28;20164;-78
2021/01/02 09:55:38;;;;;;;6.40;2.95;;;6.30;99.90;;;;;;4995684;28;20199;-79
2021/01/02 09:58:04;;;;;;;1.83;1.73;;;6.20;99.90;;;;;;5012885;28;20164;-78
2021/01/02 10:00:30;;;;;;;2.20;1.98;;;6.20;99.90;;;;;;4995191;28;20221;-78
2021/01/02 10:02:56;;;;;;;1.48;0.73;;;6.20;99.90;;;;;;5012765;28;20175;-78
2021/01/02 10:05:23;;;;;;;6.10;2.17;;;6.30;99.90;;;;;;5012695;28;20597;-79
2021/01/02 10:07:49;;;;;;;0.85;0.85;;;6.40;99.90;;;;;;5012964;28;20169;-79
2021/01/02 10:10:16;;;;;;;2.20;2.10;;;6.20;99.90;;;;;;5012998;28;20255;-78
2021/01/02 10:12:43;;;;;;;2.22;2.03;;;6.40;99.90;;;;;;5013356;28;20697;-78
2021/01/02 10:15:10;;;;;;;1.23;1.17;;;6.20;99.90;;;;;;5012696;28;20224;-80
2021/01/02 10:17:35;;;;;;;2.47;2.28;;;6.20;99.90;;;;;;5012734;28;20165;-78
2021/01/02 10:20:02;;;;;;;1.05;1.05;;;6.10;99.90;;;;;;5012594;28;20212;-78
2021/01/02 10:22:28;;;;;;;2.40;2.20;;;6.40;99.90;;;;;;5015071;28;20176;-78
2021/01/02 10:24:54;;;;;;;2.22;2.13;;;6.20;99.90;;;;;;5031519;28;20299;-79
2021/01/02 10:27:21;;;;;;;3.30;1.00;;;6.30;99.90;;;;;;5031935;28;20160;-78
2021/01/02 10:29:48;;;;;;;2.05;1.92;;;6.40;99.90;;;;;;5032390;28;20521;-78
2021/01/02 10:32:16;;;;;;;1.52;1.42;;;6.30;99.90;;;;;;5032001;28;20201;-78
2021/01/02 10:34:45;;;;;;;1.17;1.13;;;6.30;99.90;;;;;;5031706;28;20219;-79
2021/01/02 10:37:11;;;;;;;1.65;1.55;;;6.20;99.90;;;;;;5014281;28;20219;-78
2021/01/02 10:39:38;;;;;;;0.65;0.65;;;6.30;99.90;;;;;;5031417;28;20256;-78
2021/01/02 10:42:04;;;;;;;2.25;2.15;;;6.50;99.90;;;;;;5032203;28;20152;-78
2021/01/02 10:44:29;;;;;;;3.20;1.75;;;6.60;99.90;;;;;;5031703;28;20211;-77
2021/01/02 10:46:55;;;;;;;3.83;1.90;;;6.70;99.90;;;;;;5031853;28;20631;-76
2021/01/02 10:49:22;;;;;;;1.75;1.13;;;6.80;99.90;;;;;;5035587;28;20191;-77
2021/01/02 10:51:48;;;;;;;2.45;2.22;;;7.00;99.90;;;;;;5036068;28;20243;-77
2021/01/02 10:54:16;;;;;;;0.95;0.93;;;6.90;99.90;;;;;;5038433;28;20647;-77
2021/01/02 10:56:50;;;;;;;1.17;0.95;;;7.00;99.90;;;;;;5053399;28;20202;-77
2021/01/02 10:59:18;;;;;;;1.55;1.45;;;7.10;99.90;;;;;;5055095;28;20169;-76
2021/01/02 11:01:49;;;;;;;2.63;2.42;;;7.10;99.90;;;;;;5055375;28;20160;-77
2021/01/02 11:04:18;;;;;;;1.30;1.27;;;7.10;99.90;;;;;;5055111;28;20731;-76
2021/01/02 11:06:44;;;;;;;3.20;2.90;;;7.10;99.90;;;;;;5054083;28;20531;-78
2021/01/02 11:09:13;;;;;;;2.70;2.28;;;7.30;99.90;;;;;;5055100;28;20646;-76
2021/01/02 11:11:39;;;;;;;4.40;2.53;;;7.30;99.90;;;;;;5033475;28;20171;-76
2021/01/02 11:14:05;;;;;;;0.80;0.80;;;7.30;99.90;;;;;;5032380;28;20179;-76
2021/01/02 11:16:31;;;;;;;1.00;0.98;;;7.40;99.90;;;;;;5035510;28;20180;-76
2021/01/02 11:18:57;;;;;;;2.53;2.33;;;7.10;99.90;;;;;;5035414;28;20314;-77
2021/01/02 11:21:23;;;;;;;3.03;1.92;;;7.10;99.90;;;;;;5034655;28;20267;-77
2021/01/02 11:23:48;;;;;;;1.08;1.05;;;7.40;99.90;;;;;;5016502;28;20178;-76
2021/01/02 11:26:14;;;;;;;2.45;1.67;;;7.50;99.90;;;;;;5034758;28;20587;-77
2021/01/02 11:28:41;;;;;;;6.32;1.85;;;7.40;99.90;;;;;;5034584;28;20164;-77
2021/01/02 11:31:06;;;;;;;2.17;1.35;;;7.10;99.90;;;;;;5034741;28;20163;-76
2021/01/02 11:33:32;;;;;;;32.80;2.50;;;7.10;99.90;;;;;;5016469;28;20172;-78
2021/01/02 11:35:58;;;;;;;3.17;1.85;;;7.00;99.90;;;;;;5034536;28;20594;-76
2021/01/02 11:38:23;;;;;;;1.58;1.33;;;6.90;99.90;;;;;;5034480;28;20616;-78
2021/01/02 11:40:52;;;;;;;1.30;1.23;;;6.80;99.90;;;;;;5034339;28;20249;-76
2021/01/02 11:43:18;;;;;;;2.70;2.10;;;7.00;99.90;;;;;;5034483;28;20247;-76
2021/01/02 11:45:48;;;;;;;2.30;1.15;;;7.10;99.90;;;;;;5034214;28;20184;-76
2021/01/02 11:48:15;;;;;;;3.10;2.85;;;7.10;99.90;;;;;;5034398;28;20222;-77
2021/01/02 11:50:41;;;;;;;2.63;1.75;;;7.00;99.90;;;;;;5034264;28;20213;-76
2021/01/02 11:53:08;;;;;;;2.05;1.17;;;6.90;99.90;;;;;;5033779;28;20172;-75
2021/01/02 11:55:34;;;;;;;1.13;1.13;;;6.70;99.90;;;;;;5034064;28;20214;-76
2021/01/02 11:58:01;;;;;;;3.08;2.85;;;6.90;99.90;;;;;;5033966;28;20164;-77
2021/01/02 12:00:28;;;;;;;7.18;3.15;;;6.90;99.90;;;;;;5034079;28;20199;-77
2021/01/02 12:02:54;;;;;;;2.13;1.92;;;6.90;99.90;;;;;;5033740;28;20623;-76
2021/01/02 12:05:20;;;;;;;1.85;1.75;;;6.90;99.90;;;;;;5034087;28;20195;-77
2021/01/02 12:07:45;;;;;;;1.95;1.85;;;6.90;99.90;;;;;;5016482;28;20202;-76
2021/01/02 12:10:11;;;;;;;4.22;1.90;;;7.00;99.90;;;;;;5033482;28;20176;-76
2021/01/02 12:12:37;;;;;;;1.95;1.85;;;7.10;99.90;;;;;;5033959;28;20163;-76
2021/01/02 12:15:04;;;;;;;8.70;2.92;;;7.10;99.90;;;;;;5033662;28;20188;-76
2021/01/02 12:17:30;;;;;;;2.33;2.17;;;7.40;99.90;;;;;;5033929;28;20179;-76
2021/01/02 12:19:55;;;;;;;3.47;3.17;;;7.40;99.90;;;;;;5033496;28;20191;-76
2021/01/02 12:22:21;;;;;;;2.35;2.25;;;7.30;99.90;;;;;;5033252;28;20258;-77
2021/01/02 12:24:47;;;;;;;2.53;2.00;;;7.20;99.90;;;;;;5033332;28;20544;-78
2021/01/02 12:27:13;;;;;;;2.30;1.50;;;7.30;99.90;;;;;;5033886;28;20191;-78
2021/01/02 12:29:39;;;;;;;2.00;1.83;;;7.30;99.90;;;;;;5015551;28;20646;-78
2021/01/02 12:32:09;;;;;;;2.17;1.65;;;7.20;99.90;;;;;;5034027;28;20234;-77
2021/01/02 12:34:38;;;;;;;2.65;1.52;;;7.40;99.90;;;;;;5015478;28;20608;-78
2021/01/02 12:37:10;;;;;;;1.80;1.70;;;7.70;99.90;;;;;;5033355;28;20631;-77
2021/01/02 12:39:37;;;;;;;1.90;1.77;;;7.70;99.90;;;;;;5032933;28;20219;-77
2021/01/02 12:42:04;;;;;;;3.75;2.05;;;7.80;99.90;;;;;;5015903;28;20200;-77
2021/01/02 12:44:30;;;;;;;4.25;3.45;;;7.60;99.90;;;;;;5032937;28;20215;-77
2021/01/02 12:47:25;;;;;;;3.28;2.47;;;7.50;99.90;;;;;;5033334;28;20168;-78
2021/01/02 12:49:50;;;;;;;0.80;0.80;;;7.60;99.90;;;;;;5011884;28;20215;-77
2021/01/02 12:52:16;;;;;;;3.47;2.35;;;7.50;99.90;;;;;;5032900;28;20214;-78
2021/01/02 12:54:42;;;;;;;2.03;1.92;;;7.40;99.90;;;;;;5015107;28;20740;-77
2021/01/02 12:57:07;;;;;;;3.17;1.25;;;7.30;99.90;;;;;;5033189;28;20178;-77
2021/01/02 12:59:35;;;;;;;6.47;2.72;;;7.20;99.90;;;;;;5032848;28;20200;-77
2021/01/02 13:02:05;;;;;;;17.63;2.95;;;7.20;99.90;;;;;;5033150;28;20171;-77
2021/01/02 13:04:30;;;;;;;5.18;2.15;;;7.20;99.90;;;;;;5014735;28;20187;-77
2021/01/02 13:06:58;;;;;;;3.25;2.72;;;7.30;99.90;;;;;;5014877;28;20278;-77
2021/01/02 13:09:25;;;;;;;1.55;1.48;;;7.30;99.90;;;;;;5032556;28;20251;-76
2021/01/02 13:11:55;;;;;;;2.10;2.00;;;7.60;99.90;;;;;;5032681;28;20167;-76
2021/01/02 13:14:22;;;;;;;6.13;2.13;;;7.50;99.90;;;;;;5032282;28;20179;-76
2021/01/02 13:16:53;;;;;;;1.55;1.45;;;7.50;99.90;;;;;;5032713;28;20168;-76